sensor_id;sensor_type;location;lat;lon;timestamp;P1;durP1;ratioP1;P2;durP2;ratioP2
30723;SDS011;17473;52.286;20.930;2024-03-02T00:00:21;46.80;;;27.87;;
30723;SDS011;17473;52.286;20.930;2024-03-02T00:02:49;50.87;;;28.43;;
30723;SDS011;17473;52.286;20.930;2024-03-02T00:05:20;48.30;;;26.67;;
30723;SDS011;17473;52.286;20.930;2024-03-02T00:07:52;47.57;;;27.03;;
30723;SDS011;17473;52.286;20.930;2024-03-02T00:10:24;45.20;;;26.07;;
30723;SDS011;17473;52.286;20.930;2024-03-02T00:12:55;44.73;;;25.97;;
30723;SDS011;17473;52.286;20.930;2024-03-02T00:18:20;45.60;;;26.77;;
30723;SDS011;17473;52.286;20.930;2024-03-02T00:20:55;48.83;;;25.47;;
30723;SDS011;17473;52.286;20.930;2024-03-02T00:23:23;52.67;;;27.90;;
30723;SDS011;17473;52.286;20.930;2024-03-02T00:25:52;48.63;;;27.47;;
30723;SDS011;17473;52.286;20.930;2024-03-02T00:28:25;49.10;;;26.83;;
30723;SDS011;17473;52.286;20.930;2024-03-02T00:30:58;46.03;;;27.27;;
30723;SDS011;17473;52.286;20.930;2024-03-02T00:33:35;41.17;;;25.07;;
30723;SDS011;17473;52.286;20.930;2024-03-02T00:36:04;51.23;;;27.07;;
30723;SDS011;17473;52.286;20.930;2024-03-02T00:38:31;44.77;;;26.43;;
30723;SDS011;17473;52.286;20.930;2024-03-02T00:41:00;44.60;;;25.80;;
30723;SDS011;17473;52.286;20.930;2024-03-02T00:46:15;46.20;;;25.03;;
30723;SDS011;17473;52.286;20.930;2024-03-02T00:48:47;50.07;;;25.93;;
30723;SDS011;17473;52.286;20.930;2024-03-02T00:51:19;48.00;;;27.37;;
30723;SDS011;17473;52.286;20.930;2024-03-02T00:53:52;44.10;;;25.07;;
30723;SDS011;17473;52.286;20.930;2024-03-02T00:56:22;47.43;;;25.70;;
30723;SDS011;17473;52.286;20.930;2024-03-02T00:58:50;49.07;;;25.07;;
30723;SDS011;17473;52.286;20.930;2024-03-02T01:01:17;44.30;;;24.80;;
30723;SDS011;17473;52.286;20.930;2024-03-02T01:03:46;42.00;;;25.43;;
30723;SDS011;17473;52.286;20.930;2024-03-02T01:06:13;54.57;;;27.40;;
30723;SDS011;17473;52.286;20.930;2024-03-02T01:08:41;47.27;;;25.57;;
30723;SDS011;17473;52.286;20.930;2024-03-02T01:11:08;45.70;;;25.83;;
30723;SDS011;17473;52.286;20.930;2024-03-02T01:13:35;52.57;;;27.73;;
30723;SDS011;17473;52.286;20.930;2024-03-02T01:16:02;47.43;;;26.77;;
30723;SDS011;17473;52.286;20.930;2024-03-02T01:18:30;46.23;;;26.23;;
30723;SDS011;17473;52.286;20.930;2024-03-02T01:20:57;42.97;;;24.50;;
30723;SDS011;17473;52.286;20.930;2024-03-02T01:23:24;47.87;;;26.10;;
30723;SDS011;17473;52.286;20.930;2024-03-02T01:25:51;40.13;;;24.53;;
30723;SDS011;17473;52.286;20.930;2024-03-02T01:28:19;40.23;;;24.90;;
30723;SDS011;17473;52.286;20.930;2024-03-02T01:30:47;45.57;;;25.80;;
30723;SDS011;17473;52.286;20.930;2024-03-02T01:33:15;45.27;;;25.23;;
30723;SDS011;17473;52.286;20.930;2024-03-02T01:35:46;46.03;;;26.47;;
30723;SDS011;17473;52.286;20.930;2024-03-02T01:38:13;48.57;;;26.77;;
30723;SDS011;17473;52.286;20.930;2024-03-02T01:40:40;48.33;;;25.63;;
30723;SDS011;17473;52.286;20.930;2024-03-02T01:43:07;45.20;;;25.30;;
30723;SDS011;17473;52.286;20.930;2024-03-02T01:45:34;49.07;;;26.33;;
30723;SDS011;17473;52.286;20.930;2024-03-02T01:48:03;42.87;;;25.63;;
30723;SDS011;17473;52.286;20.930;2024-03-02T01:50:34;42.27;;;24.37;;
30723;SDS011;17473;52.286;20.930;2024-03-02T01:53:01;36.83;;;24.00;;
30723;SDS011;17473;52.286;20.930;2024-03-02T01:55:29;44.60;;;24.60;;
30723;SDS011;17473;52.286;20.930;2024-03-02T01:57:57;43.07;;;25.23;;
30723;SDS011;17473;52.286;20.930;2024-03-02T02:00:25;44.07;;;25.30;;
30723;SDS011;17473;52.286;20.930;2024-03-02T02:02:53;41.60;;;25.50;;
30723;SDS011;17473;52.286;20.930;2024-03-02T02:05:21;40.87;;;23.43;;
30723;SDS011;17473;52.286;20.930;2024-03-02T02:07:48;43.00;;;26.23;;
30723;SDS011;17473;52.286;20.930;2024-03-02T02:10:16;41.57;;;24.00;;
30723;SDS011;17473;52.286;20.930;2024-03-02T02:12:43;46.00;;;26.13;;
30723;SDS011;17473;52.286;20.930;2024-03-02T02:15:28;42.30;;;24.77;;
30723;SDS011;17473;52.286;20.930;2024-03-02T02:17:57;43.33;;;25.30;;
30723;SDS011;17473;52.286;20.930;2024-03-02T02:20:25;42.83;;;24.40;;
30723;SDS011;17473;52.286;20.930;2024-03-02T02:25:25;38.60;;;22.30;;
30723;SDS011;17473;52.286;20.930;2024-03-02T02:27:53;41.33;;;24.13;;
30723;SDS011;17473;52.286;20.930;2024-03-02T02:30:22;38.07;;;24.23;;
30723;SDS011;17473;52.286;20.930;2024-03-02T02:32:53;45.00;;;24.37;;
30723;SDS011;17473;52.286;20.930;2024-03-02T02:35:21;42.37;;;24.50;;
30723;SDS011;17473;52.286;20.930;2024-03-02T02:37:48;47.37;;;25.87;;
30723;SDS011;17473;52.286;20.930;2024-03-02T02:40:16;39.10;;;23.87;;
30723;SDS011;17473;52.286;20.930;2024-03-02T02:42:45;42.50;;;24.13;;
30723;SDS011;17473;52.286;20.930;2024-03-02T02:45:12;41.63;;;24.03;;
30723;SDS011;17473;52.286;20.930;2024-03-02T02:47:41;41.73;;;23.30;;
30723;SDS011;17473;52.286;20.930;2024-03-02T02:50:08;36.93;;;23.13;;
30723;SDS011;17473;52.286;20.930;2024-03-02T02:52:37;39.13;;;23.80;;
30723;SDS011;17473;52.286;20.930;2024-03-02T02:55:07;45.07;;;24.00;;
30723;SDS011;17473;52.286;20.930;2024-03-02T02:57:35;39.90;;;22.60;;
30723;SDS011;17473;52.286;20.930;2024-03-02T03:02:41;38.30;;;23.63;;
30723;SDS011;17473;52.286;20.930;2024-03-02T03:05:08;37.33;;;24.53;;
30723;SDS011;17473;52.286;20.930;2024-03-02T03:07:36;39.73;;;22.73;;
30723;SDS011;17473;52.286;20.930;2024-03-02T03:10:04;37.27;;;22.37;;
30723;SDS011;17473;52.286;20.930;2024-03-02T03:12:33;37.23;;;23.53;;
30723;SDS011;17473;52.286;20.930;2024-03-02T03:15:00;37.70;;;24.23;;
30723;SDS011;17473;52.286;20.930;2024-03-02T03:17:27;37.87;;;23.70;;
30723;SDS011;17473;52.286;20.930;2024-03-02T03:19:55;37.07;;;22.43;;
30723;SDS011;17473;52.286;20.930;2024-03-02T03:22:21;38.70;;;21.63;;
30723;SDS011;17473;52.286;20.930;2024-03-02T03:24:48;34.80;;;21.80;;
30723;SDS011;17473;52.286;20.930;2024-03-02T03:27:15;36.60;;;22.60;;
30723;SDS011;17473;52.286;20.930;2024-03-02T03:29:42;37.73;;;21.57;;
30723;SDS011;17473;52.286;20.930;2024-03-02T03:32:09;34.87;;;20.97;;
30723;SDS011;17473;52.286;20.930;2024-03-02T03:34:36;40.07;;;22.87;;
30723;SDS011;17473;52.286;20.930;2024-03-02T03:37:03;37.27;;;21.97;;
30723;SDS011;17473;52.286;20.930;2024-03-02T03:39:30;39.60;;;22.30;;
30723;SDS011;17473;52.286;20.930;2024-03-02T03:41:57;43.40;;;23.20;;
30723;SDS011;17473;52.286;20.930;2024-03-02T03:44:24;34.83;;;22.50;;
30723;SDS011;17473;52.286;20.930;2024-03-02T03:46:51;37.67;;;22.30;;
30723;SDS011;17473;52.286;20.930;2024-03-02T03:49:18;34.37;;;21.73;;
30723;SDS011;17473;52.286;20.930;2024-03-02T03:51:45;34.10;;;21.03;;
30723;SDS011;17473;52.286;20.930;2024-03-02T03:54:12;37.73;;;21.83;;
30723;SDS011;17473;52.286;20.930;2024-03-02T03:56:39;37.83;;;22.30;;
30723;SDS011;17473;52.286;20.930;2024-03-02T03:59:06;34.90;;;22.20;;
30723;SDS011;17473;52.286;20.930;2024-03-02T04:01:33;35.57;;;21.60;;
30723;SDS011;17473;52.286;20.930;2024-03-02T04:04:00;32.37;;;21.20;;
30723;SDS011;17473;52.286;20.930;2024-03-02T04:06:29;36.70;;;21.33;;
30723;SDS011;17473;52.286;20.930;2024-03-02T04:08:57;37.40;;;21.37;;
30723;SDS011;17473;52.286;20.930;2024-03-02T04:11:24;34.30;;;21.40;;
30723;SDS011;17473;52.286;20.930;2024-03-02T04:13:51;42.47;;;24.07;;
30723;SDS011;17473;52.286;20.930;2024-03-02T04:16:19;37.40;;;22.43;;
30723;SDS011;17473;52.286;20.930;2024-03-02T04:18:46;38.97;;;22.27;;
30723;SDS011;17473;52.286;20.930;2024-03-02T04:21:13;39.97;;;21.93;;
30723;SDS011;17473;52.286;20.930;2024-03-02T04:23:40;36.93;;;22.33;;
30723;SDS011;17473;52.286;20.930;2024-03-02T04:26:07;38.73;;;23.80;;
30723;SDS011;17473;52.286;20.930;2024-03-02T04:28:34;37.67;;;21.83;;
30723;SDS011;17473;52.286;20.930;2024-03-02T04:31:01;38.13;;;22.73;;
30723;SDS011;17473;52.286;20.930;2024-03-02T04:33:28;39.03;;;22.13;;
30723;SDS011;17473;52.286;20.930;2024-03-02T04:35:55;38.40;;;23.60;;
30723;SDS011;17473;52.286;20.930;2024-03-02T04:38:22;41.47;;;23.63;;
30723;SDS011;17473;52.286;20.930;2024-03-02T04:40:49;41.00;;;23.13;;
30723;SDS011;17473;52.286;20.930;2024-03-02T04:43:16;37.07;;;21.87;;
30723;SDS011;17473;52.286;20.930;2024-03-02T04:45:43;37.90;;;22.23;;
30723;SDS011;17473;52.286;20.930;2024-03-02T04:48:10;34.97;;;21.93;;
30723;SDS011;17473;52.286;20.930;2024-03-02T04:50:37;36.83;;;22.53;;
30723;SDS011;17473;52.286;20.930;2024-03-02T04:53:04;41.97;;;21.20;;
30723;SDS011;17473;52.286;20.930;2024-03-02T04:55:31;38.47;;;23.03;;
30723;SDS011;17473;52.286;20.930;2024-03-02T04:58:01;41.63;;;23.17;;
30723;SDS011;17473;52.286;20.930;2024-03-02T05:00:28;47.83;;;23.47;;
30723;SDS011;17473;52.286;20.930;2024-03-02T05:02:55;36.00;;;21.40;;
30723;SDS011;17473;52.286;20.930;2024-03-02T05:05:22;39.53;;;22.50;;
30723;SDS011;17473;52.286;20.930;2024-03-02T05:07:49;46.17;;;21.07;;
30723;SDS011;17473;52.286;20.930;2024-03-02T05:10:16;37.97;;;21.37;;
30723;SDS011;17473;52.286;20.930;2024-03-02T05:12:44;39.83;;;21.97;;
30723;SDS011;17473;52.286;20.930;2024-03-02T05:15:11;41.80;;;21.90;;
30723;SDS011;17473;52.286;20.930;2024-03-02T05:17:40;38.20;;;21.33;;
30723;SDS011;17473;52.286;20.930;2024-03-02T05:20:09;35.53;;;20.57;;
30723;SDS011;17473;52.286;20.930;2024-03-02T05:22:37;38.73;;;20.47;;
30723;SDS011;17473;52.286;20.930;2024-03-02T05:25:04;37.37;;;21.27;;
30723;SDS011;17473;52.286;20.930;2024-03-02T05:27:31;35.43;;;22.57;;
30723;SDS011;17473;52.286;20.930;2024-03-02T05:29:59;38.90;;;21.03;;
30723;SDS011;17473;52.286;20.930;2024-03-02T05:32:26;37.20;;;20.27;;
30723;SDS011;17473;52.286;20.930;2024-03-02T05:34:53;39.47;;;21.73;;
30723;SDS011;17473;52.286;20.930;2024-03-02T05:37:21;38.40;;;21.67;;
30723;SDS011;17473;52.286;20.930;2024-03-02T05:39:48;35.47;;;20.90;;
30723;SDS011;17473;52.286;20.930;2024-03-02T05:42:15;38.13;;;22.10;;
30723;SDS011;17473;52.286;20.930;2024-03-02T05:44:45;37.47;;;21.33;;
30723;SDS011;17473;52.286;20.930;2024-03-02T05:47:13;49.97;;;23.53;;
30723;SDS011;17473;52.286;20.930;2024-03-02T05:49:40;37.93;;;22.50;;
30723;SDS011;17473;52.286;20.930;2024-03-02T05:52:07;39.33;;;22.40;;
30723;SDS011;17473;52.286;20.930;2024-03-02T05:54:34;36.63;;;19.73;;
30723;SDS011;17473;52.286;20.930;2024-03-02T05:57:00;37.57;;;21.10;;
30723;SDS011;17473;52.286;20.930;2024-03-02T05:59:43;42.73;;;22.83;;
30723;SDS011;17473;52.286;20.930;2024-03-02T06:02:10;41.23;;;21.50;;
30723;SDS011;17473;52.286;20.930;2024-03-02T06:04:37;42.57;;;22.00;;
30723;SDS011;17473;52.286;20.930;2024-03-02T06:07:04;38.30;;;21.57;;
30723;SDS011;17473;52.286;20.930;2024-03-02T06:09:31;35.50;;;20.67;;
30723;SDS011;17473;52.286;20.930;2024-03-02T06:11:58;40.53;;;21.60;;
30723;SDS011;17473;52.286;20.930;2024-03-02T06:14:25;37.43;;;21.50;;
30723;SDS011;17473;52.286;20.930;2024-03-02T06:16:52;34.47;;;19.77;;
30723;SDS011;17473;52.286;20.930;2024-03-02T06:19:19;32.67;;;19.60;;
30723;SDS011;17473;52.286;20.930;2024-03-02T06:21:46;34.57;;;20.13;;
30723;SDS011;17473;52.286;20.930;2024-03-02T06:24:13;37.70;;;21.03;;
30723;SDS011;17473;52.286;20.930;2024-03-02T06:26:40;40.77;;;21.70;;
30723;SDS011;17473;52.286;20.930;2024-03-02T06:29:07;36.07;;;21.37;;
30723;SDS011;17473;52.286;20.930;2024-03-02T06:31:34;37.70;;;21.30;;
30723;SDS011;17473;52.286;20.930;2024-03-02T06:34:01;42.27;;;23.07;;
30723;SDS011;17473;52.286;20.930;2024-03-02T06:36:30;39.83;;;22.77;;
30723;SDS011;17473;52.286;20.930;2024-03-02T06:38:57;38.50;;;22.27;;
30723;SDS011;17473;52.286;20.930;2024-03-02T06:41:24;40.83;;;20.93;;
30723;SDS011;17473;52.286;20.930;2024-03-02T06:43:52;33.47;;;19.23;;
30723;SDS011;17473;52.286;20.930;2024-03-02T06:46:26;35.73;;;19.77;;
30723;SDS011;17473;52.286;20.930;2024-03-02T06:48:53;37.50;;;20.83;;
30723;SDS011;17473;52.286;20.930;2024-03-02T06:51:20;40.20;;;20.10;;
30723;SDS011;17473;52.286;20.930;2024-03-02T06:53:47;33.67;;;19.43;;
30723;SDS011;17473;52.286;20.930;2024-03-02T06:56:14;34.90;;;20.23;;
30723;SDS011;17473;52.286;20.930;2024-03-02T06:58:41;36.43;;;19.20;;
30723;SDS011;17473;52.286;20.930;2024-03-02T07:01:09;37.10;;;20.33;;
30723;SDS011;17473;52.286;20.930;2024-03-02T07:03:36;39.63;;;21.23;;
30723;SDS011;17473;52.286;20.930;2024-03-02T07:06:03;37.17;;;20.20;;
30723;SDS011;17473;52.286;20.930;2024-03-02T07:08:30;31.77;;;18.40;;
30723;SDS011;17473;52.286;20.930;2024-03-02T07:10:57;35.67;;;19.20;;
30723;SDS011;17473;52.286;20.930;2024-03-02T07:13:24;36.83;;;18.40;;
30723;SDS011;17473;52.286;20.930;2024-03-02T07:15:51;34.27;;;18.07;;
30723;SDS011;17473;52.286;20.930;2024-03-02T07:18:31;33.00;;;19.27;;
30723;SDS011;17473;52.286;20.930;2024-03-02T07:20:58;31.47;;;18.53;;
30723;SDS011;17473;52.286;20.930;2024-03-02T07:23:27;29.80;;;19.00;;
30723;SDS011;17473;52.286;20.930;2024-03-02T07:25:54;37.73;;;20.77;;
30723;SDS011;17473;52.286;20.930;2024-03-02T07:28:25;34.93;;;19.63;;
30723;SDS011;17473;52.286;20.930;2024-03-02T07:31:02;34.53;;;19.13;;
30723;SDS011;17473;52.286;20.930;2024-03-02T07:33:31;34.10;;;17.60;;
30723;SDS011;17473;52.286;20.930;2024-03-02T07:35:58;40.87;;;20.87;;
30723;SDS011;17473;52.286;20.930;2024-03-02T07:38:30;31.40;;;18.67;;
30723;SDS011;17473;52.286;20.930;2024-03-02T07:40:58;38.37;;;18.70;;
30723;SDS011;17473;52.286;20.930;2024-03-02T07:43:25;36.03;;;20.27;;
30723;SDS011;17473;52.286;20.930;2024-03-02T07:45:52;35.20;;;19.43;;
30723;SDS011;17473;52.286;20.930;2024-03-02T07:48:19;37.37;;;19.93;;
30723;SDS011;17473;52.286;20.930;2024-03-02T07:50:46;35.10;;;19.37;;
30723;SDS011;17473;52.286;20.930;2024-03-02T07:53:13;37.27;;;20.27;;
30723;SDS011;17473;52.286;20.930;2024-03-02T07:55:41;38.17;;;20.23;;
30723;SDS011;17473;52.286;20.930;2024-03-02T07:58:08;36.43;;;19.03;;
30723;SDS011;17473;52.286;20.930;2024-03-02T08:00:35;33.63;;;18.77;;
30723;SDS011;17473;52.286;20.930;2024-03-02T08:03:02;30.93;;;18.07;;
30723;SDS011;17473;52.286;20.930;2024-03-02T08:05:30;35.40;;;18.43;;
30723;SDS011;17473;52.286;20.930;2024-03-02T08:07:56;34.00;;;17.63;;
30723;SDS011;17473;52.286;20.930;2024-03-02T08:10:23;29.83;;;17.50;;
30723;SDS011;17473;52.286;20.930;2024-03-02T08:12:50;31.80;;;18.33;;
30723;SDS011;17473;52.286;20.930;2024-03-02T08:15:17;32.53;;;18.07;;
30723;SDS011;17473;52.286;20.930;2024-03-02T08:17:44;29.97;;;17.30;;
30723;SDS011;17473;52.286;20.930;2024-03-02T08:20:15;32.50;;;17.20;;
30723;SDS011;17473;52.286;20.930;2024-03-02T08:22:42;33.97;;;17.87;;
30723;SDS011;17473;52.286;20.930;2024-03-02T08:25:09;33.80;;;18.97;;
30723;SDS011;17473;52.286;20.930;2024-03-02T08:27:36;36.97;;;18.60;;
30723;SDS011;17473;52.286;20.930;2024-03-02T08:30:04;34.60;;;17.60;;
30723;SDS011;17473;52.286;20.930;2024-03-02T08:32:33;43.40;;;19.60;;
30723;SDS011;17473;52.286;20.930;2024-03-02T08:35:00;30.67;;;16.57;;
30723;SDS011;17473;52.286;20.930;2024-03-02T08:37:28;39.10;;;17.60;;
30723;SDS011;17473;52.286;20.930;2024-03-02T08:39:55;34.93;;;18.20;;
30723;SDS011;17473;52.286;20.930;2024-03-02T08:42:22;32.70;;;16.43;;
30723;SDS011;17473;52.286;20.930;2024-03-02T08:44:49;38.80;;;18.67;;
30723;SDS011;17473;52.286;20.930;2024-03-02T08:47:16;40.37;;;18.60;;
30723;SDS011;17473;52.286;20.930;2024-03-02T08:49:43;33.63;;;18.07;;
30723;SDS011;17473;52.286;20.930;2024-03-02T08:52:10;32.90;;;17.23;;
30723;SDS011;17473;52.286;20.930;2024-03-02T08:54:37;34.80;;;17.97;;
30723;SDS011;17473;52.286;20.930;2024-03-02T08:57:05;35.00;;;17.03;;
30723;SDS011;17473;52.286;20.930;2024-03-02T08:59:32;32.93;;;17.07;;
30723;SDS011;17473;52.286;20.930;2024-03-02T09:01:59;34.90;;;17.90;;
30723;SDS011;17473;52.286;20.930;2024-03-02T09:04:26;37.43;;;18.47;;
30723;SDS011;17473;52.286;20.930;2024-03-02T09:06:58;39.90;;;18.00;;
30723;SDS011;17473;52.286;20.930;2024-03-02T09:09:25;34.33;;;18.03;;
30723;SDS011;17473;52.286;20.930;2024-03-02T09:11:52;30.27;;;17.60;;
30723;SDS011;17473;52.286;20.930;2024-03-02T09:14:24;37.00;;;18.80;;
30723;SDS011;17473;52.286;20.930;2024-03-02T09:16:51;34.83;;;18.83;;
30723;SDS011;17473;52.286;20.930;2024-03-02T09:19:18;31.87;;;18.13;;
30723;SDS011;17473;52.286;20.930;2024-03-02T09:21:45;34.10;;;19.03;;
30723;SDS011;17473;52.286;20.930;2024-03-02T09:24:12;30.40;;;16.30;;
30723;SDS011;17473;52.286;20.930;2024-03-02T09:26:43;36.50;;;17.70;;
30723;SDS011;17473;52.286;20.930;2024-03-02T09:29:10;30.60;;;17.97;;
30723;SDS011;17473;52.286;20.930;2024-03-02T09:31:41;30.20;;;18.23;;
30723;SDS011;17473;52.286;20.930;2024-03-02T09:34:08;34.73;;;19.47;;
30723;SDS011;17473;52.286;20.930;2024-03-02T09:36:35;34.13;;;18.83;;
30723;SDS011;17473;52.286;20.930;2024-03-02T09:39:02;36.37;;;17.90;;
30723;SDS011;17473;52.286;20.930;2024-03-02T09:41:30;39.43;;;18.80;;
30723;SDS011;17473;52.286;20.930;2024-03-02T09:43:58;33.23;;;17.97;;
30723;SDS011;17473;52.286;20.930;2024-03-02T09:46:26;35.97;;;18.53;;
30723;SDS011;17473;52.286;20.930;2024-03-02T09:48:53;33.17;;;18.07;;
30723;SDS011;17473;52.286;20.930;2024-03-02T09:51:19;37.97;;;18.50;;
30723;SDS011;17473;52.286;20.930;2024-03-02T09:53:47;36.37;;;17.33;;
30723;SDS011;17473;52.286;20.930;2024-03-02T09:56:14;41.87;;;18.53;;
30723;SDS011;17473;52.286;20.930;2024-03-02T09:58:45;36.87;;;17.87;;
30723;SDS011;17473;52.286;20.930;2024-03-02T10:01:12;37.27;;;17.50;;
30723;SDS011;17473;52.286;20.930;2024-03-02T10:03:39;33.97;;;18.13;;
30723;SDS011;17473;52.286;20.930;2024-03-02T10:06:20;36.70;;;18.40;;
30723;SDS011;17473;52.286;20.930;2024-03-02T10:08:56;32.77;;;18.03;;
30723;SDS011;17473;52.286;20.930;2024-03-02T10:11:27;36.33;;;18.80;;
30723;SDS011;17473;52.286;20.930;2024-03-02T10:14:12;32.90;;;17.53;;
30723;SDS011;17473;52.286;20.930;2024-03-02T10:16:41;38.00;;;19.60;;
30723;SDS011;17473;52.286;20.930;2024-03-02T10:19:16;37.37;;;19.30;;
30723;SDS011;17473;52.286;20.930;2024-03-02T10:21:50;36.33;;;18.47;;
30723;SDS011;17473;52.286;20.930;2024-03-02T10:24:18;38.50;;;18.80;;
30723;SDS011;17473;52.286;20.930;2024-03-02T10:26:46;32.77;;;18.57;;
30723;SDS011;17473;52.286;20.930;2024-03-02T10:29:13;38.77;;;20.13;;
30723;SDS011;17473;52.286;20.930;2024-03-02T10:31:43;37.10;;;19.83;;
30723;SDS011;17473;52.286;20.930;2024-03-02T10:34:12;36.07;;;20.10;;
30723;SDS011;17473;52.286;20.930;2024-03-02T10:36:43;36.77;;;20.20;;
30723;SDS011;17473;52.286;20.930;2024-03-02T10:39:12;40.67;;;20.37;;
30723;SDS011;17473;52.286;20.930;2024-03-02T10:41:40;34.60;;;18.87;;
30723;SDS011;17473;52.286;20.930;2024-03-02T10:44:08;31.73;;;17.70;;
30723;SDS011;17473;52.286;20.930;2024-03-02T10:46:36;33.07;;;18.73;;
30723;SDS011;17473;52.286;20.930;2024-03-02T10:49:04;32.13;;;17.80;;
30723;SDS011;17473;52.286;20.930;2024-03-02T10:51:34;32.53;;;18.07;;
30723;SDS011;17473;52.286;20.930;2024-03-02T10:54:04;33.63;;;18.80;;
30723;SDS011;17473;52.286;20.930;2024-03-02T10:59:03;37.70;;;19.33;;
30723;SDS011;17473;52.286;20.930;2024-03-02T11:01:35;33.80;;;18.60;;
30723;SDS011;17473;52.286;20.930;2024-03-02T11:04:07;37.73;;;20.40;;
30723;SDS011;17473;52.286;20.930;2024-03-02T11:06:35;33.67;;;17.73;;
30723;SDS011;17473;52.286;20.930;2024-03-02T11:09:05;32.75;;;16.95;;
30723;SDS011;17473;52.286;20.930;2024-03-02T11:11:36;43.30;;;19.60;;
30723;SDS011;17473;52.286;20.930;2024-03-02T11:14:04;31.67;;;18.60;;
30723;SDS011;17473;52.286;20.930;2024-03-02T11:16:35;33.97;;;18.97;;
30723;SDS011;17473;52.286;20.930;2024-03-02T11:19:06;34.95;;;18.23;;
30723;SDS011;17473;52.286;20.930;2024-03-02T11:21:38;34.25;;;18.05;;
30723;SDS011;17473;52.286;20.930;2024-03-02T11:26:50;33.80;;;19.13;;
30723;SDS011;17473;52.286;20.930;2024-03-02T11:32:03;40.50;;;19.07;;
30723;SDS011;17473;52.286;20.930;2024-03-02T11:34:31;39.08;;;19.55;;
30723;SDS011;17473;52.286;20.930;2024-03-02T11:36:59;36.30;;;19.13;;
30723;SDS011;17473;52.286;20.930;2024-03-02T11:39:28;36.92;;;18.75;;
30723;SDS011;17473;52.286;20.930;2024-03-02T11:41:58;35.72;;;20.05;;
30723;SDS011;17473;52.286;20.930;2024-03-02T11:44:26;35.37;;;19.67;;
30723;SDS011;17473;52.286;20.930;2024-03-02T11:47:05;37.67;;;20.73;;
30723;SDS011;17473;52.286;20.930;2024-03-02T11:52:08;44.47;;;22.63;;
30723;SDS011;17473;52.286;20.930;2024-03-02T11:54:38;41.43;;;23.50;;
30723;SDS011;17473;52.286;20.930;2024-03-02T11:57:06;44.70;;;22.47;;
30723;SDS011;17473;52.286;20.930;2024-03-02T11:59:34;41.03;;;21.48;;
30723;SDS011;17473;52.286;20.930;2024-03-02T12:02:01;37.50;;;22.43;;
30723;SDS011;17473;52.286;20.930;2024-03-02T12:04:29;41.10;;;23.13;;
30723;SDS011;17473;52.286;20.930;2024-03-02T12:07:00;44.10;;;23.60;;
30723;SDS011;17473;52.286;20.930;2024-03-02T12:09:28;36.63;;;21.30;;
30723;SDS011;17473;52.286;20.930;2024-03-02T12:12:02;42.88;;;22.60;;
30723;SDS011;17473;52.286;20.930;2024-03-02T12:14:33;34.70;;;22.00;;
30723;SDS011;17473;52.286;20.930;2024-03-02T12:17:01;47.20;;;24.85;;
30723;SDS011;17473;52.286;20.930;2024-03-02T12:19:29;44.25;;;25.60;;
30723;SDS011;17473;52.286;20.930;2024-03-02T12:21:56;54.60;;;25.27;;
30723;SDS011;17473;52.286;20.930;2024-03-02T12:24:24;47.75;;;25.25;;
30723;SDS011;17473;52.286;20.930;2024-03-02T12:26:53;39.50;;;23.17;;
30723;SDS011;17473;52.286;20.930;2024-03-02T12:29:21;42.53;;;24.38;;
30723;SDS011;17473;52.286;20.930;2024-03-02T12:31:51;39.97;;;24.73;;
30723;SDS011;17473;52.286;20.930;2024-03-02T12:34:18;47.53;;;25.83;;
30723;SDS011;17473;52.286;20.930;2024-03-02T12:36:46;43.45;;;25.17;;
30723;SDS011;17473;52.286;20.930;2024-03-02T12:39:19;47.83;;;26.33;;
30723;SDS011;17473;52.286;20.930;2024-03-02T12:41:49;52.30;;;26.85;;
30723;SDS011;17473;52.286;20.930;2024-03-02T12:44:20;47.17;;;27.40;;
30723;SDS011;17473;52.286;20.930;2024-03-02T12:46:47;50.35;;;28.20;;
30723;SDS011;17473;52.286;20.930;2024-03-02T12:49:14;49.63;;;26.13;;
30723;SDS011;17473;52.286;20.930;2024-03-02T12:51:46;53.88;;;26.45;;
30723;SDS011;17473;52.286;20.930;2024-03-02T12:54:21;45.78;;;26.25;;
30723;SDS011;17473;52.286;20.930;2024-03-02T12:56:49;43.00;;;26.52;;
30723;SDS011;17473;52.286;20.930;2024-03-02T12:59:19;45.80;;;28.50;;
30723;SDS011;17473;52.286;20.930;2024-03-02T13:01:54;52.80;;;25.87;;
30723;SDS011;17473;52.286;20.930;2024-03-02T13:04:25;45.95;;;25.63;;
30723;SDS011;17473;52.286;20.930;2024-03-02T13:06:54;45.83;;;26.07;;
30723;SDS011;17473;52.286;20.930;2024-03-02T13:09:24;40.70;;;23.77;;
30723;SDS011;17473;52.286;20.930;2024-03-02T13:11:51;42.85;;;26.55;;
30723;SDS011;17473;52.286;20.930;2024-03-02T13:14:18;51.72;;;27.20;;
30723;SDS011;17473;52.286;20.930;2024-03-02T13:16:45;44.38;;;27.08;;
30723;SDS011;17473;52.286;20.930;2024-03-02T13:19:13;47.63;;;27.00;;
30723;SDS011;17473;52.286;20.930;2024-03-02T13:21:41;45.15;;;26.83;;
30723;SDS011;17473;52.286;20.930;2024-03-02T13:24:08;45.38;;;25.75;;
30723;SDS011;17473;52.286;20.930;2024-03-02T13:26:35;39.35;;;24.35;;
30723;SDS011;17473;52.286;20.930;2024-03-02T13:29:02;43.30;;;24.90;;
30723;SDS011;17473;52.286;20.930;2024-03-02T13:31:29;46.63;;;24.70;;
30723;SDS011;17473;52.286;20.930;2024-03-02T13:33:56;43.88;;;25.20;;
30723;SDS011;17473;52.286;20.930;2024-03-02T13:36:23;45.97;;;25.73;;
30723;SDS011;17473;52.286;20.930;2024-03-02T13:38:51;43.67;;;25.02;;
30723;SDS011;17473;52.286;20.930;2024-03-02T13:41:18;44.67;;;24.42;;
30723;SDS011;17473;52.286;20.930;2024-03-02T13:43:46;42.47;;;26.85;;
30723;SDS011;17473;52.286;20.930;2024-03-02T13:46:16;43.50;;;26.52;;
30723;SDS011;17473;52.286;20.930;2024-03-02T13:48:43;48.55;;;25.38;;
30723;SDS011;17473;52.286;20.930;2024-03-02T13:51:10;41.70;;;25.48;;
30723;SDS011;17473;52.286;20.930;2024-03-02T13:53:36;46.10;;;26.60;;
30723;SDS011;17473;52.286;20.930;2024-03-02T13:56:03;42.65;;;25.75;;
30723;SDS011;17473;52.286;20.930;2024-03-02T13:58:31;42.15;;;25.70;;
30723;SDS011;17473;52.286;20.930;2024-03-02T14:00:58;42.67;;;26.58;;
30723;SDS011;17473;52.286;20.930;2024-03-02T14:03:26;43.00;;;24.67;;
30723;SDS011;17473;52.286;20.930;2024-03-02T14:05:56;42.08;;;26.27;;
30723;SDS011;17473;52.286;20.930;2024-03-02T14:08:24;44.75;;;26.48;;
30723;SDS011;17473;52.286;20.930;2024-03-02T14:10:50;43.10;;;26.00;;
30723;SDS011;17473;52.286;20.930;2024-03-02T14:13:17;46.75;;;28.17;;
30723;SDS011;17473;52.286;20.930;2024-03-02T14:15:44;50.75;;;29.08;;
30723;SDS011;17473;52.286;20.930;2024-03-02T14:18:12;50.88;;;26.70;;
30723;SDS011;17473;52.286;20.930;2024-03-02T14:20:39;46.63;;;28.15;;
30723;SDS011;17473;52.286;20.930;2024-03-02T14:23:09;44.47;;;27.08;;
30723;SDS011;17473;52.286;20.930;2024-03-02T14:25:36;48.38;;;27.15;;
30723;SDS011;17473;52.286;20.930;2024-03-02T14:28:03;52.30;;;27.15;;
30723;SDS011;17473;52.286;20.930;2024-03-02T14:30:33;47.17;;;27.40;;
30723;SDS011;17473;52.286;20.930;2024-03-02T14:33:00;47.22;;;27.38;;
30723;SDS011;17473;52.286;20.930;2024-03-02T14:35:27;46.95;;;27.65;;